Palo Verde, Arizona
Current Conditions -  °F | °C
As of 3:15 PM on Friday 31 Oct 2014 (Local Time) from KBXK Reporting Station
Clear Clear  
Wind Chill: 86°   Ceiling: Unl
Heat Index: 86°   Visibility: 10mi
Dew Point: 45°   Wind: 0mph
Humidity: 23%   Direction: NA
Pressure: 29.8"   Gusts: NA
Location:  33.35°N, 112.68°W
Report Text: KBXK 312215Z AUTO 00000KT 10SM CLR 30/07 A2980 RMK AO1
Loading
Personal Weather Stations






























Interactive Weather Map
Tropical Storm Tracking
New forecast layout! Learn more

10-Day Weather Forecast

Advertisements
Track Severe Weather on mobile